sensor_id;sensor_type;location;lat;lon;timestamp;temperature;humidity
33803;DHT22;20110;53.120;5.786;2022-10-04T00:09:51;11.50;99.90
33803;DHT22;20110;53.120;5.786;2022-10-04T00:12:24;11.50;99.90
33803;DHT22;20110;53.120;5.786;2022-10-04T00:14:57;11.40;99.90
33803;DHT22;20110;53.120;5.786;2022-10-04T00:17:28;11.40;99.90
33803;DHT22;20110;53.120;5.786;2022-10-04T00:19:56;11.50;99.90
33803;DHT22;20110;53.120;5.786;2022-10-04T00:23:23;11.40;99.90
33803;DHT22;20110;53.120;5.786;2022-10-04T00:25:52;11.50;99.90
33803;DHT22;20110;53.120;5.786;2022-10-04T00:31:13;11.50;99.90
33803;DHT22;20110;53.120;5.786;2022-10-04T00:44:34;11.40;99.90
33803;DHT22;20110;53.120;5.786;2022-10-04T00:47:03;11.40;99.90
33803;DHT22;20110;53.120;5.786;2022-10-04T00:52:52;11.40;99.90
33803;DHT22;20110;53.120;5.786;2022-10-04T00:55:48;11.30;99.90
33803;DHT22;20110;53.120;5.786;2022-10-04T00:58:28;11.30;99.90
33803;DHT22;20110;53.120;5.786;2022-10-04T01:00:59;11.20;99.90
33803;DHT22;20110;53.120;5.786;2022-10-04T01:03:37;11.30;99.90
33803;DHT22;20110;53.120;5.786;2022-10-04T01:06:09;11.30;99.90
33803;DHT22;20110;53.120;5.786;2022-10-04T01:08:47;11.30;99.90
33803;DHT22;20110;53.120;5.786;2022-10-04T01:11:23;11.30;99.90
33803;DHT22;20110;53.120;5.786;2022-10-04T01:14:00;11.30;99.90
33803;DHT22;20110;53.120;5.786;2022-10-04T01:16:33;11.30;99.90
33803;DHT22;20110;53.120;5.786;2022-10-04T01:24:37;11.20;99.90
33803;DHT22;20110;53.120;5.786;2022-10-04T01:27:32;11.10;99.90
33803;DHT22;20110;53.120;5.786;2022-10-04T01:30:03;11.00;99.90
33803;DHT22;20110;53.120;5.786;2022-10-04T01:32:34;10.90;99.90
33803;DHT22;20110;53.120;5.786;2022-10-04T01:35:01;10.90;99.90
33803;DHT22;20110;53.120;5.786;2022-10-04T01:37:28;10.80;99.90
33803;DHT22;20110;53.120;5.786;2022-10-04T01:39:54;10.70;99.90
33803;DHT22;20110;53.120;5.786;2022-10-04T01:42:26;10.60;99.90
33803;DHT22;20110;53.120;5.786;2022-10-04T01:47:54;10.40;99.90
33803;DHT22;20110;53.120;5.786;2022-10-04T01:50:34;10.30;99.90
33803;DHT22;20110;53.120;5.786;2022-10-04T01:53:23;10.20;99.90
33803;DHT22;20110;53.120;5.786;2022-10-04T01:56:13;10.20;99.90
33803;DHT22;20110;53.120;5.786;2022-10-04T01:58:43;10.10;99.90
33803;DHT22;20110;53.120;5.786;2022-10-04T02:01:34;9.90;99.90
33803;DHT22;20110;53.120;5.786;2022-10-04T02:04:26;9.90;99.90
33803;DHT22;20110;53.120;5.786;2022-10-04T02:06:55;9.70;99.90
33803;DHT22;20110;53.120;5.786;2022-10-04T02:09:32;9.60;99.90
33803;DHT22;20110;53.120;5.786;2022-10-04T02:12:00;9.50;99.90
33803;DHT22;20110;53.120;5.786;2022-10-04T02:14:30;9.50;99.90
33803;DHT22;20110;53.120;5.786;2022-10-04T02:16:59;9.40;99.90
33803;DHT22;20110;53.120;5.786;2022-10-04T02:19:34;9.40;99.90
33803;DHT22;20110;53.120;5.786;2022-10-04T02:22:03;9.30;99.90
33803;DHT22;20110;53.120;5.786;2022-10-04T02:24:33;9.20;99.90
33803;DHT22;20110;53.120;5.786;2022-10-04T02:27:02;9.20;99.90
33803;DHT22;20110;53.120;5.786;2022-10-04T02:29:28;9.20;99.90
33803;DHT22;20110;53.120;5.786;2022-10-04T02:31:54;9.20;99.90
33803;DHT22;20110;53.120;5.786;2022-10-04T02:34:39;9.20;99.90
33803;DHT22;20110;53.120;5.786;2022-10-04T02:37:06;9.20;99.90
33803;DHT22;20110;53.120;5.786;2022-10-04T02:39:42;9.20;99.90
33803;DHT22;20110;53.120;5.786;2022-10-04T02:42:25;9.20;99.90
33803;DHT22;20110;53.120;5.786;2022-10-04T02:45:08;9.00;99.90
33803;DHT22;20110;53.120;5.786;2022-10-04T02:47:43;9.10;99.90
33803;DHT22;20110;53.120;5.786;2022-10-04T02:50:44;9.00;99.90
33803;DHT22;20110;53.120;5.786;2022-10-04T02:53:20;9.00;99.90
33803;DHT22;20110;53.120;5.786;2022-10-04T02:55:53;9.00;99.90
33803;DHT22;20110;53.120;5.786;2022-10-04T02:58:22;9.00;99.90
33803;DHT22;20110;53.120;5.786;2022-10-04T03:00:59;8.90;99.90
33803;DHT22;20110;53.120;5.786;2022-10-04T03:03:28;8.80;99.90
33803;DHT22;20110;53.120;5.786;2022-10-04T03:08:48;8.70;99.90
33803;DHT22;20110;53.120;5.786;2022-10-04T03:11:17;8.60;99.90
33803;DHT22;20110;53.120;5.786;2022-10-04T03:13:49;8.60;99.90
33803;DHT22;20110;53.120;5.786;2022-10-04T03:16:19;8.50;99.90
33803;DHT22;20110;53.120;5.786;2022-10-04T03:18:47;8.50;99.90
33803;DHT22;20110;53.120;5.786;2022-10-04T03:21:16;8.40;99.90
33803;DHT22;20110;53.120;5.786;2022-10-04T03:23:47;8.40;99.90
33803;DHT22;20110;53.120;5.786;2022-10-04T03:26:42;8.50;99.90
33803;DHT22;20110;53.120;5.786;2022-10-04T03:29:13;8.60;99.90
33803;DHT22;20110;53.120;5.786;2022-10-04T03:31:45;8.60;99.90
33803;DHT22;20110;53.120;5.786;2022-10-04T03:34:20;8.70;99.90
33803;DHT22;20110;53.120;5.786;2022-10-04T03:36:50;8.80;99.90
33803;DHT22;20110;53.120;5.786;2022-10-04T03:39:36;8.80;99.90
33803;DHT22;20110;53.120;5.786;2022-10-04T03:42:23;8.80;99.90
33803;DHT22;20110;53.120;5.786;2022-10-04T03:44:59;8.80;99.90
33803;DHT22;20110;53.120;5.786;2022-10-04T03:47:33;8.80;99.90
33803;DHT22;20110;53.120;5.786;2022-10-04T03:50:28;8.70;99.90
33803;DHT22;20110;53.120;5.786;2022-10-04T03:53:05;8.70;99.90
33803;DHT22;20110;53.120;5.786;2022-10-04T03:55:39;8.60;99.90
33803;DHT22;20110;53.120;5.786;2022-10-04T03:58:10;8.50;99.90
33803;DHT22;20110;53.120;5.786;2022-10-04T04:00:54;8.40;99.90
33803;DHT22;20110;53.120;5.786;2022-10-04T04:03:28;8.30;99.90
33803;DHT22;20110;53.120;5.786;2022-10-04T04:06:05;8.30;99.90
33803;DHT22;20110;53.120;5.786;2022-10-04T04:08:41;8.40;99.90
33803;DHT22;20110;53.120;5.786;2022-10-04T04:11:20;8.40;99.90
33803;DHT22;20110;53.120;5.786;2022-10-04T04:14:01;8.50;99.90
33803;DHT22;20110;53.120;5.786;2022-10-04T04:16:35;8.50;99.90
33803;DHT22;20110;53.120;5.786;2022-10-04T04:19:08;8.50;99.90
33803;DHT22;20110;53.120;5.786;2022-10-04T04:21:37;8.40;99.90
33803;DHT22;20110;53.120;5.786;2022-10-04T04:24:32;8.40;99.90
33803;DHT22;20110;53.120;5.786;2022-10-04T04:27:00;8.40;99.90
33803;DHT22;20110;53.120;5.786;2022-10-04T04:29:42;8.40;99.90
33803;DHT22;20110;53.120;5.786;2022-10-04T04:32:22;8.40;99.90
33803;DHT22;20110;53.120;5.786;2022-10-04T04:34:58;8.40;99.90
33803;DHT22;20110;53.120;5.786;2022-10-04T04:37:37;8.40;99.90
33803;DHT22;20110;53.120;5.786;2022-10-04T04:40:23;8.40;99.90
33803;DHT22;20110;53.120;5.786;2022-10-04T04:42:50;8.40;99.90
33803;DHT22;20110;53.120;5.786;2022-10-04T04:45:22;8.40;99.90
33803;DHT22;20110;53.120;5.786;2022-10-04T04:47:54;8.50;99.90
33803;DHT22;20110;53.120;5.786;2022-10-04T04:50:34;8.30;99.90
33803;DHT22;20110;53.120;5.786;2022-10-04T04:53:11;8.30;99.90
33803;DHT22;20110;53.120;5.786;2022-10-04T04:56:02;8.30;99.90
33803;DHT22;20110;53.120;5.786;2022-10-04T04:58:37;8.20;99.90
33803;DHT22;20110;53.120;5.786;2022-10-04T05:01:12;8.20;99.90
33803;DHT22;20110;53.120;5.786;2022-10-04T05:04:11;8.20;99.90
33803;DHT22;20110;53.120;5.786;2022-10-04T05:09:36;8.20;99.90
33803;DHT22;20110;53.120;5.786;2022-10-04T05:12:21;8.20;99.90
33803;DHT22;20110;53.120;5.786;2022-10-04T05:14:50;8.20;99.90
33803;DHT22;20110;53.120;5.786;2022-10-04T05:17:25;8.20;99.90
33803;DHT22;20110;53.120;5.786;2022-10-04T05:19:59;8.20;99.90
33803;DHT22;20110;53.120;5.786;2022-10-04T05:22:27;8.20;99.90
33803;DHT22;20110;53.120;5.786;2022-10-04T05:24:58;8.20;99.90
33803;DHT22;20110;53.120;5.786;2022-10-04T05:27:31;8.10;99.90
33803;DHT22;20110;53.120;5.786;2022-10-04T05:33:08;8.00;99.90
33803;DHT22;20110;53.120;5.786;2022-10-04T05:41:08;8.20;99.90
33803;DHT22;20110;53.120;5.786;2022-10-04T05:43:59;8.20;99.90
33803;DHT22;20110;53.120;5.786;2022-10-04T05:46:33;8.20;99.90
33803;DHT22;20110;53.120;5.786;2022-10-04T05:49:11;8.10;99.90
33803;DHT22;20110;53.120;5.786;2022-10-04T05:51:48;8.00;99.90
33803;DHT22;20110;53.120;5.786;2022-10-04T05:54:32;8.00;99.90
33803;DHT22;20110;53.120;5.786;2022-10-04T06:02:53;8.00;99.90
33803;DHT22;20110;53.120;5.786;2022-10-04T06:05:51;8.10;99.90
33803;DHT22;20110;53.120;5.786;2022-10-04T06:11:53;8.20;99.90
33803;DHT22;20110;53.120;5.786;2022-10-04T06:18:26;8.30;99.90
33803;DHT22;20110;53.120;5.786;2022-10-04T06:21:17;8.40;99.90
33803;DHT22;20110;53.120;5.786;2022-10-04T06:24:31;8.40;99.90
33803;DHT22;20110;53.120;5.786;2022-10-04T06:26:53;8.40;99.90
33803;DHT22;20110;53.120;5.786;2022-10-04T06:29:29;8.40;99.90
33803;DHT22;20110;53.120;5.786;2022-10-04T06:35:16;8.40;99.90
33803;DHT22;20110;53.120;5.786;2022-10-04T06:47:35;8.40;99.90
33803;DHT22;20110;53.120;5.786;2022-10-04T06:56:02;8.60;99.90
33803;DHT22;20110;53.120;5.786;2022-10-04T07:01:49;8.80;99.90
33803;DHT22;20110;53.120;5.786;2022-10-04T07:07:08;9.00;99.90
33803;DHT22;20110;53.120;5.786;2022-10-04T07:27:54;9.50;99.90
33803;DHT22;20110;53.120;5.786;2022-10-04T07:30:59;9.50;99.90
33803;DHT22;20110;53.120;5.786;2022-10-04T07:33:32;9.60;99.90
33803;DHT22;20110;53.120;5.786;2022-10-04T07:36:12;9.60;99.90
33803;DHT22;20110;53.120;5.786;2022-10-04T07:39:02;9.60;99.90
33803;DHT22;20110;53.120;5.786;2022-10-04T07:41:38;9.60;99.90
33803;DHT22;20110;53.120;5.786;2022-10-04T07:47:18;9.70;99.90
33803;DHT22;20110;53.120;5.786;2022-10-04T07:49:50;9.80;99.90
33803;DHT22;20110;53.120;5.786;2022-10-04T07:57:57;10.20;99.90
33803;DHT22;20110;53.120;5.786;2022-10-04T08:01:01;10.20;99.90
33803;DHT22;20110;53.120;5.786;2022-10-04T08:06:57;10.60;99.90
33803;DHT22;20110;53.120;5.786;2022-10-04T08:15:41;11.00;99.90
33803;DHT22;20110;53.120;5.786;2022-10-04T08:18:37;11.00;99.90
33803;DHT22;20110;53.120;5.786;2022-10-04T08:21:21;11.00;99.90
33803;DHT22;20110;53.120;5.786;2022-10-04T08:24:06;11.20;99.90
33803;DHT22;20110;53.120;5.786;2022-10-04T08:27:00;11.30;99.90
33803;DHT22;20110;53.120;5.786;2022-10-04T08:33:14;11.50;99.90
33803;DHT22;20110;53.120;5.786;2022-10-04T08:36:24;11.70;99.90
33803;DHT22;20110;53.120;5.786;2022-10-04T08:38:58;11.60;99.90
33803;DHT22;20110;53.120;5.786;2022-10-04T08:56:18;11.70;99.90
33803;DHT22;20110;53.120;5.786;2022-10-04T09:05:22;11.80;99.90
33803;DHT22;20110;53.120;5.786;2022-10-04T09:11:24;12.10;99.90
33803;DHT22;20110;53.120;5.786;2022-10-04T09:14:36;12.30;99.90
33803;DHT22;20110;53.120;5.786;2022-10-04T09:20:21;12.40;99.90
33803;DHT22;20110;53.120;5.786;2022-10-04T09:23:24;12.70;99.90
33803;DHT22;20110;53.120;5.786;2022-10-04T09:26:19;12.70;99.90
33803;DHT22;20110;53.120;5.786;2022-10-04T09:32:16;12.60;99.90
33803;DHT22;20110;53.120;5.786;2022-10-04T09:34:36;12.60;99.90
33803;DHT22;20110;53.120;5.786;2022-10-04T09:37:21;13.30;99.90
33803;DHT22;20110;53.120;5.786;2022-10-04T09:43:34;13.70;99.90
33803;DHT22;20110;53.120;5.786;2022-10-04T09:58:56;12.90;99.90
33803;DHT22;20110;53.120;5.786;2022-10-04T10:04:36;13.50;99.90
33803;DHT22;20110;53.120;5.786;2022-10-04T10:10:39;13.80;99.90
33803;DHT22;20110;53.120;5.786;2022-10-04T10:16:40;13.90;99.90
33803;DHT22;20110;53.120;5.786;2022-10-04T10:22:52;13.40;99.90
33803;DHT22;20110;53.120;5.786;2022-10-04T10:44:02;13.60;99.90
33803;DHT22;20110;53.120;5.786;2022-10-04T10:59:11;13.90;99.90
33803;DHT22;20110;53.120;5.786;2022-10-04T11:07:53;13.60;99.90
33803;DHT22;20110;53.120;5.786;2022-10-04T11:25:55;14.20;99.90
33803;DHT22;20110;53.120;5.786;2022-10-04T11:34:10;13.50;99.90
33803;DHT22;20110;53.120;5.786;2022-10-04T11:37:04;14.00;99.90
33803;DHT22;20110;53.120;5.786;2022-10-04T11:40:03;14.40;99.90
33803;DHT22;20110;53.120;5.786;2022-10-04T12:23:42;14.80;99.90
33803;DHT22;20110;53.120;5.786;2022-10-04T12:32:14;15.40;99.90
33803;DHT22;20110;53.120;5.786;2022-10-04T12:34:52;15.00;99.90
33803;DHT22;20110;53.120;5.786;2022-10-04T12:52:23;15.00;99.90
33803;DHT22;20110;53.120;5.786;2022-10-04T12:58:40;15.10;99.90
33803;DHT22;20110;53.120;5.786;2022-10-04T13:04:38;15.70;99.90
33803;DHT22;20110;53.120;5.786;2022-10-04T13:15:43;15.00;99.90
33803;DHT22;20110;53.120;5.786;2022-10-04T13:27:48;15.20;99.90
33803;DHT22;20110;53.120;5.786;2022-10-04T13:32:59;15.30;99.90
33803;DHT22;20110;53.120;5.786;2022-10-04T13:35:38;15.30;99.90
33803;DHT22;20110;53.120;5.786;2022-10-04T13:41:33;15.20;99.90
33803;DHT22;20110;53.120;5.786;2022-10-04T13:52:38;15.10;99.90
33803;DHT22;20110;53.120;5.786;2022-10-04T13:55:47;15.20;99.90
33803;DHT22;20110;53.120;5.786;2022-10-04T14:21:52;15.00;99.90
33803;DHT22;20110;53.120;5.786;2022-10-04T14:27:40;15.30;99.90
33803;DHT22;20110;53.120;5.786;2022-10-04T14:30:15;15.50;99.90
33803;DHT22;20110;53.120;5.786;2022-10-04T14:33:15;15.50;99.90
33803;DHT22;20110;53.120;5.786;2022-10-04T14:36:21;15.30;99.90
33803;DHT22;20110;53.120;5.786;2022-10-04T14:39:28;15.40;99.90
33803;DHT22;20110;53.120;5.786;2022-10-04T14:42:27;15.50;99.90
33803;DHT22;20110;53.120;5.786;2022-10-04T14:45:30;15.40;99.90
33803;DHT22;20110;53.120;5.786;2022-10-04T14:48:45;15.60;99.90
33803;DHT22;20110;53.120;5.786;2022-10-04T14:54:52;15.10;99.90
33803;DHT22;20110;53.120;5.786;2022-10-04T15:00:47;15.00;99.90
33803;DHT22;20110;53.120;5.786;2022-10-04T15:06:35;14.90;99.90
33803;DHT22;20110;53.120;5.786;2022-10-04T15:17:31;15.10;99.90
33803;DHT22;20110;53.120;5.786;2022-10-04T15:20:19;15.00;99.90
33803;DHT22;20110;53.120;5.786;2022-10-04T15:22:54;15.10;99.90
33803;DHT22;20110;53.120;5.786;2022-10-04T15:25:50;14.90;99.90
33803;DHT22;20110;53.120;5.786;2022-10-04T15:31:25;14.80;99.90
33803;DHT22;20110;53.120;5.786;2022-10-04T15:37:02;14.80;99.90
33803;DHT22;20110;53.120;5.786;2022-10-04T15:40:04;14.60;99.90
33803;DHT22;20110;53.120;5.786;2022-10-04T15:42:38;14.60;99.90
33803;DHT22;20110;53.120;5.786;2022-10-04T16:03:47;14.50;99.90
33803;DHT22;20110;53.120;5.786;2022-10-04T16:09:55;14.50;99.90
33803;DHT22;20110;53.120;5.786;2022-10-04T16:15:44;14.40;99.90
33803;DHT22;20110;53.120;5.786;2022-10-04T16:18:37;14.30;99.90
33803;DHT22;20110;53.120;5.786;2022-10-04T16:24:42;14.20;99.90
33803;DHT22;20110;53.120;5.786;2022-10-04T16:30:26;14.20;99.90
33803;DHT22;20110;53.120;5.786;2022-10-04T16:33:25;14.10;99.90
33803;DHT22;20110;53.120;5.786;2022-10-04T16:38:50;14.10;99.90
33803;DHT22;20110;53.120;5.786;2022-10-04T16:41:44;14.00;99.90
33803;DHT22;20110;53.120;5.786;2022-10-04T16:44:35;13.90;99.90
33803;DHT22;20110;53.120;5.786;2022-10-04T16:47:30;14.00;99.90
33803;DHT22;20110;53.120;5.786;2022-10-04T16:50:00;13.90;99.90
33803;DHT22;20110;53.120;5.786;2022-10-04T16:52:48;13.90;99.90
33803;DHT22;20110;53.120;5.786;2022-10-04T16:55:55;13.80;99.90
33803;DHT22;20110;53.120;5.786;2022-10-04T17:04:18;13.70;99.90
33803;DHT22;20110;53.120;5.786;2022-10-04T17:07:30;13.80;99.90
33803;DHT22;20110;53.120;5.786;2022-10-04T17:10:28;13.70;99.90
33803;DHT22;20110;53.120;5.786;2022-10-04T17:19:29;13.80;99.90
33803;DHT22;20110;53.120;5.786;2022-10-04T17:27:26;13.90;99.90
33803;DHT22;20110;53.120;5.786;2022-10-04T17:30:21;13.80;99.90
33803;DHT22;20110;53.120;5.786;2022-10-04T17:32:56;13.80;99.90
33803;DHT22;20110;53.120;5.786;2022-10-04T17:44:53;13.90;99.90
33803;DHT22;20110;53.120;5.786;2022-10-04T17:51:01;13.90;99.90
33803;DHT22;20110;53.120;5.786;2022-10-04T17:54:23;14.00;99.90
33803;DHT22;20110;53.120;5.786;2022-10-04T17:57:24;14.00;99.90
33803;DHT22;20110;53.120;5.786;2022-10-04T18:05:34;14.00;99.90
33803;DHT22;20110;53.120;5.786;2022-10-04T18:11:06;14.00;99.90
33803;DHT22;20110;53.120;5.786;2022-10-04T18:13:47;14.00;99.90
33803;DHT22;20110;53.120;5.786;2022-10-04T18:16:29;14.00;99.90
33803;DHT22;20110;53.120;5.786;2022-10-04T18:19:00;14.00;99.90
33803;DHT22;20110;53.120;5.786;2022-10-04T18:21:50;14.00;99.90
33803;DHT22;20110;53.120;5.786;2022-10-04T18:24:20;13.90;99.90
33803;DHT22;20110;53.120;5.786;2022-10-04T18:27:01;14.00;99.90
33803;DHT22;20110;53.120;5.786;2022-10-04T18:34:57;14.00;99.90
33803;DHT22;20110;53.120;5.786;2022-10-04T18:37:32;13.90;99.90
33803;DHT22;20110;53.120;5.786;2022-10-04T18:40:32;14.00;99.90
33803;DHT22;20110;53.120;5.786;2022-10-04T18:43:00;14.00;99.90
33803;DHT22;20110;53.120;5.786;2022-10-04T18:45:31;14.00;99.90
33803;DHT22;20110;53.120;5.786;2022-10-04T18:48:01;14.10;99.90
33803;DHT22;20110;53.120;5.786;2022-10-04T18:50:41;14.00;99.90
33803;DHT22;20110;53.120;5.786;2022-10-04T18:56:16;14.10;99.90
33803;DHT22;20110;53.120;5.786;2022-10-04T18:59:00;14.00;99.90
33803;DHT22;20110;53.120;5.786;2022-10-04T19:02:34;14.10;99.90
33803;DHT22;20110;53.120;5.786;2022-10-04T19:08:27;14.10;99.90
33803;DHT22;20110;53.120;5.786;2022-10-04T19:11:02;14.10;99.90
33803;DHT22;20110;53.120;5.786;2022-10-04T19:22:49;14.10;99.90
33803;DHT22;20110;53.120;5.786;2022-10-04T19:28:27;14.00;99.90
33803;DHT22;20110;53.120;5.786;2022-10-04T19:34:12;14.00;99.90
33803;DHT22;20110;53.120;5.786;2022-10-04T19:36:51;14.00;99.90
33803;DHT22;20110;53.120;5.786;2022-10-04T19:42:22;13.90;99.90
33803;DHT22;20110;53.120;5.786;2022-10-04T19:48:27;13.90;99.90
33803;DHT22;20110;53.120;5.786;2022-10-04T19:51:27;13.90;99.90
33803;DHT22;20110;53.120;5.786;2022-10-04T19:54:25;13.80;99.90
33803;DHT22;20110;53.120;5.786;2022-10-04T19:57:00;13.80;99.90
33803;DHT22;20110;53.120;5.786;2022-10-04T19:59:38;13.80;99.90
33803;DHT22;20110;53.120;5.786;2022-10-04T20:02:09;13.80;99.90
33803;DHT22;20110;53.120;5.786;2022-10-04T20:04:36;13.90;99.90
33803;DHT22;20110;53.120;5.786;2022-10-04T20:12:35;13.90;99.90
33803;DHT22;20110;53.120;5.786;2022-10-04T20:17:45;13.90;99.90
33803;DHT22;20110;53.120;5.786;2022-10-04T20:21:02;13.90;99.90
33803;DHT22;20110;53.120;5.786;2022-10-04T20:23:04;13.90;99.90
33803;DHT22;20110;53.120;5.786;2022-10-04T20:30:59;14.00;99.90
33803;DHT22;20110;53.120;5.786;2022-10-04T20:38:54;13.90;99.90
33803;DHT22;20110;53.120;5.786;2022-10-04T20:44:47;13.90;99.90
33803;DHT22;20110;53.120;5.786;2022-10-04T20:47:39;13.90;99.90
33803;DHT22;20110;53.120;5.786;2022-10-04T20:52:48;13.90;99.90
33803;DHT22;20110;53.120;5.786;2022-10-04T20:55:27;13.90;99.90
33803;DHT22;20110;53.120;5.786;2022-10-04T20:57:57;13.90;99.90
33803;DHT22;20110;53.120;5.786;2022-10-04T21:00:28;13.90;99.90
33803;DHT22;20110;53.120;5.786;2022-10-04T21:03:16;13.90;99.90
33803;DHT22;20110;53.120;5.786;2022-10-04T21:05:43;13.90;99.90
33803;DHT22;20110;53.120;5.786;2022-10-04T21:08:29;13.80;99.90
33803;DHT22;20110;53.120;5.786;2022-10-04T21:11:14;13.80;99.90
33803;DHT22;20110;53.120;5.786;2022-10-04T21:13:50;13.90;99.90
33803;DHT22;20110;53.120;5.786;2022-10-04T21:16:34;13.90;99.90
33803;DHT22;20110;53.120;5.786;2022-10-04T21:19:40;13.80;99.90
33803;DHT22;20110;53.120;5.786;2022-10-04T21:27:33;13.90;99.90
33803;DHT22;20110;53.120;5.786;2022-10-04T21:30:01;13.90;99.90
33803;DHT22;20110;53.120;5.786;2022-10-04T21:32:34;13.90;99.90
33803;DHT22;20110;53.120;5.786;2022-10-04T21:35:02;13.90;99.90
33803;DHT22;20110;53.120;5.786;2022-10-04T21:37:29;13.80;99.90
33803;DHT22;20110;53.120;5.786;2022-10-04T21:39:55;13.90;99.90
33803;DHT22;20110;53.120;5.786;2022-10-04T21:42:21;13.90;99.90
33803;DHT22;20110;53.120;5.786;2022-10-04T21:44:47;13.90;99.90
33803;DHT22;20110;53.120;5.786;2022-10-04T21:47:13;13.90;99.90
33803;DHT22;20110;53.120;5.786;2022-10-04T21:49:39;13.90;99.90
33803;DHT22;20110;53.120;5.786;2022-10-04T21:52:06;14.00;99.90
33803;DHT22;20110;53.120;5.786;2022-10-04T21:54:33;14.10;99.90
33803;DHT22;20110;53.120;5.786;2022-10-04T21:56:59;14.10;99.90
33803;DHT22;20110;53.120;5.786;2022-10-04T21:59:25;14.10;99.90
33803;DHT22;20110;53.120;5.786;2022-10-04T22:01:51;14.10;99.90
33803;DHT22;20110;53.120;5.786;2022-10-04T22:04:17;14.10;99.90
33803;DHT22;20110;53.120;5.786;2022-10-04T22:06:43;14.00;99.90
33803;DHT22;20110;53.120;5.786;2022-10-04T22:09:09;14.10;99.90
33803;DHT22;20110;53.120;5.786;2022-10-04T22:11:35;14.00;99.90
33803;DHT22;20110;53.120;5.786;2022-10-04T22:14:01;14.10;99.90
33803;DHT22;20110;53.120;5.786;2022-10-04T22:16:27;14.10;99.90
33803;DHT22;20110;53.120;5.786;2022-10-04T22:18:53;14.10;99.90
33803;DHT22;20110;53.120;5.786;2022-10-04T22:21:19;14.00;99.90
33803;DHT22;20110;53.120;5.786;2022-10-04T22:23:45;14.00;99.90
33803;DHT22;20110;53.120;5.786;2022-10-04T22:26:15;14.00;99.90
33803;DHT22;20110;53.120;5.786;2022-10-04T22:28:48;14.00;99.90
33803;DHT22;20110;53.120;5.786;2022-10-04T22:31:19;14.00;99.90
33803;DHT22;20110;53.120;5.786;2022-10-04T22:33:49;14.00;99.90
33803;DHT22;20110;53.120;5.786;2022-10-04T22:36:24;14.00;99.90
33803;DHT22;20110;53.120;5.786;2022-10-04T22:38:58;13.90;99.90
33803;DHT22;20110;53.120;5.786;2022-10-04T22:41:34;14.00;99.90
33803;DHT22;20110;53.120;5.786;2022-10-04T22:44:13;13.90;99.90
33803;DHT22;20110;53.120;5.786;2022-10-04T22:46:42;13.90;99.90
33803;DHT22;20110;53.120;5.786;2022-10-04T22:49:11;13.90;99.90
33803;DHT22;20110;53.120;5.786;2022-10-04T22:51:41;13.90;99.90
33803;DHT22;20110;53.120;5.786;2022-10-04T22:54:15;13.90;99.90
33803;DHT22;20110;53.120;5.786;2022-10-04T22:56:43;13.90;99.90
33803;DHT22;20110;53.120;5.786;2022-10-04T22:59:11;13.90;99.90
33803;DHT22;20110;53.120;5.786;2022-10-04T23:01:39;13.90;99.90
33803;DHT22;20110;53.120;5.786;2022-10-04T23:06:47;13.90;99.90
33803;DHT22;20110;53.120;5.786;2022-10-04T23:09:13;13.80;99.90
33803;DHT22;20110;53.120;5.786;2022-10-04T23:11:39;13.80;99.90
33803;DHT22;20110;53.120;5.786;2022-10-04T23:14:04;13.80;99.90
33803;DHT22;20110;53.120;5.786;2022-10-04T23:16:30;13.80;99.90
33803;DHT22;20110;53.120;5.786;2022-10-04T23:19:09;13.80;99.90
33803;DHT22;20110;53.120;5.786;2022-10-04T23:21:38;13.70;99.90
33803;DHT22;20110;53.120;5.786;2022-10-04T23:24:13;13.80;99.90
33803;DHT22;20110;53.120;5.786;2022-10-04T23:26:51;13.70;99.90
33803;DHT22;20110;53.120;5.786;2022-10-04T23:29:22;13.70;99.90
33803;DHT22;20110;53.120;5.786;2022-10-04T23:31:54;13.80;99.90
33803;DHT22;20110;53.120;5.786;2022-10-04T23:34:29;13.70;99.90
33803;DHT22;20110;53.120;5.786;2022-10-04T23:36:59;13.60;99.90
33803;DHT22;20110;53.120;5.786;2022-10-04T23:39:33;13.70;99.90
33803;DHT22;20110;53.120;5.786;2022-10-04T23:42:00;13.70;99.90
33803;DHT22;20110;53.120;5.786;2022-10-04T23:44:37;13.70;99.90
33803;DHT22;20110;53.120;5.786;2022-10-04T23:47:10;13.70;99.90
33803;DHT22;20110;53.120;5.786;2022-10-04T23:49:44;13.70;99.90
33803;DHT22;20110;53.120;5.786;2022-10-04T23:52:31;13.70;99.90
33803;DHT22;20110;53.120;5.786;2022-10-04T23:55:01;13.70;99.90
33803;DHT22;20110;53.120;5.786;2022-10-04T23:57:28;13.70;99.90
33803;DHT22;20110;53.120;5.786;2022-10-04T23:59:57;13.60;99.90
